createdAt,value
2022-11-14T00:01:33.029Z,98048.00
2022-11-14T00:04:29.567Z,98049.00
2022-11-14T00:07:23.172Z,98044.00
2022-11-14T00:10:17.179Z,98041.00
2022-11-14T00:13:11.869Z,98041.00
2022-11-14T00:16:05.348Z,98046.00
2022-11-14T00:18:58.665Z,98040.00
2022-11-14T00:21:53.455Z,98044.00
2022-11-14T00:24:46.741Z,98039.00
2022-11-14T00:27:40.261Z,98050.00
2022-11-14T00:30:33.576Z,98046.00
2022-11-14T00:33:27.144Z,98042.00
2022-11-14T00:36:20.695Z,98045.00
2022-11-14T00:39:15.032Z,98034.00
2022-11-14T00:42:08.709Z,98037.00
2022-11-14T00:45:02.235Z,98037.00
2022-11-14T00:47:55.531Z,98030.00
2022-11-14T00:50:49.105Z,98038.00
2022-11-14T00:53:42.340Z,98027.00
2022-11-14T00:56:35.910Z,98014.00
2022-11-14T00:59:29.545Z,98016.00
2022-11-14T01:02:23.450Z,98008.00
2022-11-14T01:05:17.192Z,98022.00
2022-11-14T01:08:11.134Z,98014.00
2022-11-14T01:11:16.953Z,98025.00
2022-11-14T01:14:10.443Z,98008.00
2022-11-14T01:17:03.935Z,98015.00
2022-11-14T01:19:57.544Z,98014.00
2022-11-14T01:22:51.184Z,98011.00
2022-11-14T01:25:45.232Z,98005.00
2022-11-14T01:28:39.983Z,98006.00
2022-11-14T01:31:33.547Z,97994.00
2022-11-14T01:34:27.132Z,97997.00
2022-11-14T01:37:20.914Z,97992.00
2022-11-14T01:40:14.212Z,97990.00
2022-11-14T01:43:19.752Z,97997.00
2022-11-14T01:46:26.286Z,98001.00
2022-11-14T01:49:25.685Z,97983.00
2022-11-14T01:52:26.185Z,97982.00
2022-11-14T01:55:20.030Z,97979.00
2022-11-14T01:58:14.698Z,97976.00
2022-11-14T02:01:08.533Z,97976.00
2022-11-14T02:04:06.657Z,97976.00
2022-11-14T02:07:04.743Z,97977.00
2022-11-14T02:10:06.065Z,97971.00
2022-11-14T02:12:59.584Z,97967.00
2022-11-14T02:15:53.054Z,97963.00
2022-11-14T02:18:46.503Z,97960.00
2022-11-14T02:21:40.230Z,97957.00
2022-11-14T02:24:33.521Z,97965.00
2022-11-14T02:27:27.152Z,97972.00
2022-11-14T02:30:23.364Z,97974.00
2022-11-14T02:33:17.147Z,97973.00
2022-11-14T02:36:10.509Z,97980.00
2022-11-14T02:39:03.780Z,97978.00
2022-11-14T02:41:57.205Z,97977.00
2022-11-14T02:44:50.994Z,97959.00
2022-11-14T02:47:44.260Z,97962.00
2022-11-14T02:50:38.149Z,97968.00
2022-11-14T02:53:31.320Z,97968.00
2022-11-14T02:56:25.097Z,97959.00
2022-11-14T02:59:18.605Z,97970.00
2022-11-14T03:02:12.249Z,97969.00
2022-11-14T03:05:05.887Z,97974.00
2022-11-14T03:07:59.691Z,97986.00
2022-11-14T03:10:53.388Z,97971.00
2022-11-14T03:13:46.864Z,97969.00
2022-11-14T03:16:40.491Z,97967.00
2022-11-14T03:19:33.855Z,97949.00
2022-11-14T03:22:28.289Z,97943.00
2022-11-14T03:25:21.953Z,97929.00
2022-11-14T03:28:15.620Z,97939.00
2022-11-14T03:31:13.063Z,97928.00
2022-11-14T03:34:06.566Z,97930.00
2022-11-14T03:37:00.511Z,97923.00
2022-11-14T03:39:53.970Z,97909.00
2022-11-14T03:42:47.401Z,97910.00
2022-11-14T03:45:40.750Z,97901.00
2022-11-14T03:48:34.459Z,97896.00
2022-11-14T03:51:27.881Z,97890.00
2022-11-14T03:54:21.608Z,97910.00
2022-11-14T03:57:14.908Z,97916.00
2022-11-14T04:00:09.576Z,97926.00
2022-11-14T04:03:03.100Z,97943.00
2022-11-14T04:05:56.427Z,97947.00
2022-11-14T04:08:51.894Z,97943.00
2022-11-14T04:11:45.471Z,97944.00
2022-11-14T04:14:38.984Z,97944.00
2022-11-14T04:17:38.635Z,97932.00
2022-11-14T04:20:33.200Z,97942.00
2022-11-14T04:23:26.688Z,97944.00
2022-11-14T04:26:20.267Z,97933.00
2022-11-14T04:29:13.617Z,97927.00
2022-11-14T04:32:07.297Z,97934.00
2022-11-14T04:35:00.673Z,97920.00
2022-11-14T04:37:54.060Z,97917.00
2022-11-14T04:40:51.617Z,97905.00
2022-11-14T04:43:50.543Z,97897.00
2022-11-14T04:46:44.352Z,97882.00
2022-11-14T04:49:37.917Z,97886.00
2022-11-14T04:52:31.431Z,97892.00
2022-11-14T04:55:24.770Z,97896.00
2022-11-14T04:58:18.520Z,97896.00
2022-11-14T05:01:13.745Z,97897.00
2022-11-14T05:04:07.634Z,97904.00
2022-11-14T05:07:01.431Z,97877.00
2022-11-14T05:09:55.065Z,97869.00
2022-11-14T05:12:48.783Z,97878.00
2022-11-14T05:15:42.114Z,97868.00
2022-11-14T05:18:35.927Z,97867.00
2022-11-14T05:21:29.490Z,97856.00
2022-11-14T05:24:23.186Z,97867.00
2022-11-14T05:27:16.414Z,97868.00
2022-11-14T05:30:11.284Z,97867.00
2022-11-14T05:33:04.801Z,97868.00
2022-11-14T05:36:08.081Z,97860.00
2022-11-14T05:39:01.787Z,97869.00
2022-11-14T05:41:55.181Z,97865.00
2022-11-14T05:44:48.725Z,97861.00
2022-11-14T05:47:42.025Z,97865.00
2022-11-14T05:50:35.392Z,97869.00
2022-11-14T05:53:30.956Z,97855.00
2022-11-14T05:56:24.706Z,97867.00
2022-11-14T05:59:18.350Z,97854.00
2022-11-14T06:02:11.937Z,97860.00
2022-11-14T06:05:06.398Z,97874.00
2022-11-14T06:07:59.694Z,97886.00
2022-11-14T06:10:53.323Z,97882.00
2022-11-14T06:13:48.676Z,97881.00
2022-11-14T06:16:42.309Z,97885.00
2022-11-14T06:19:35.934Z,97882.00
2022-11-14T06:22:29.561Z,97877.00
2022-11-14T06:25:23.392Z,97882.00
2022-11-14T06:28:16.719Z,97875.00
2022-11-14T06:31:10.176Z,97876.00
2022-11-14T06:34:06.012Z,97873.00
2022-11-14T06:36:59.415Z,97865.00
2022-11-14T06:39:52.721Z,97871.00
2022-11-14T06:42:46.190Z,97875.00
2022-11-14T06:45:39.937Z,97878.00
2022-11-14T06:48:34.133Z,97888.00
2022-11-14T06:51:27.708Z,97876.00
2022-11-14T06:54:21.210Z,97873.00
2022-11-14T06:57:15.761Z,97865.00
2022-11-14T07:00:09.794Z,97876.00
2022-11-14T07:03:03.164Z,97859.00
2022-11-14T07:06:01.500Z,97865.00
2022-11-14T07:08:57.931Z,97867.00
2022-11-14T07:11:52.385Z,97860.00
2022-11-14T07:14:46.853Z,97875.00
2022-11-14T07:17:40.301Z,97869.00
2022-11-14T07:20:33.862Z,97874.00
2022-11-14T07:23:28.458Z,97875.00
2022-11-14T07:26:22.173Z,97874.00
2022-11-14T07:29:15.712Z,97880.00
2022-11-14T07:32:09.307Z,97877.00
2022-11-14T07:35:02.862Z,97880.00
2022-11-14T07:38:02.888Z,97876.00
2022-11-14T07:41:01.924Z,97870.00
2022-11-14T07:43:55.676Z,97874.00
2022-11-14T07:46:50.131Z,97877.00
2022-11-14T07:49:43.749Z,97887.00
2022-11-14T07:52:37.367Z,97893.00
2022-11-14T07:55:31.187Z,97901.00
2022-11-14T07:58:24.766Z,97909.00
2022-11-14T08:01:17.960Z,97912.00
2022-11-14T08:04:11.581Z,97917.00
2022-11-14T08:07:05.005Z,97916.00
2022-11-14T08:09:58.848Z,97919.00
2022-11-14T08:13:25.308Z,97917.00
2022-11-14T08:16:14.441Z,97915.00
2022-11-14T08:19:08.020Z,97928.00
2022-11-14T08:22:01.633Z,97930.00
2022-11-14T08:24:55.081Z,97925.00
2022-11-14T08:27:48.348Z,97936.00
2022-11-14T08:30:42.080Z,97947.00
2022-11-14T08:33:35.149Z,97944.00
2022-11-14T08:36:28.563Z,97944.00
2022-11-14T08:39:22.209Z,97944.00
2022-11-14T08:42:16.006Z,97935.00
2022-11-14T08:45:09.795Z,97943.00
2022-11-14T08:48:03.243Z,97945.00
2022-11-14T08:50:56.749Z,97948.00
2022-11-14T08:53:52.275Z,97929.00
2022-11-14T08:56:45.701Z,97942.00
2022-11-14T08:59:38.983Z,97934.00
2022-11-14T09:02:32.649Z,97930.00
2022-11-14T09:05:26.588Z,97938.00
2022-11-14T09:08:20.337Z,97924.00
2022-11-14T09:11:18.083Z,97939.00
2022-11-14T09:14:12.969Z,97946.00
2022-11-14T09:17:06.611Z,97946.00
2022-11-14T09:20:00.476Z,97939.00
2022-11-14T09:22:53.938Z,97941.00
2022-11-14T09:25:47.499Z,97923.00
2022-11-14T09:28:40.692Z,97928.00
2022-11-14T09:31:33.988Z,97926.00
2022-11-14T09:34:27.417Z,97931.00
2022-11-14T09:37:20.889Z,97928.00
2022-11-14T09:40:14.569Z,97930.00
2022-11-14T09:44:01.141Z,97927.00
2022-11-14T09:47:07.157Z,97920.00
2022-11-14T09:50:11.898Z,97920.00
2022-11-14T09:53:15.043Z,97902.00
2022-11-14T09:56:20.474Z,97911.00
2022-11-14T09:59:14.844Z,97899.00
2022-11-14T10:02:31.501Z,97896.00
2022-11-14T10:05:53.802Z,97899.00
2022-11-14T10:09:12.140Z,97899.00
2022-11-14T10:12:29.473Z,97895.00
2022-11-14T10:15:45.540Z,97899.00
2022-11-14T10:18:50.198Z,97887.00
2022-11-14T10:21:57.213Z,97881.00
2022-11-14T10:25:30.156Z,97887.00
2022-11-14T10:29:24.586Z,97881.00
2022-11-14T10:32:55.146Z,97882.00
2022-11-14T10:36:00.021Z,97889.00
2022-11-14T10:39:14.209Z,97875.00
2022-11-14T10:42:16.136Z,97885.00
2022-11-14T10:45:33.001Z,97891.00
2022-11-14T10:48:40.961Z,97889.00
2022-11-14T10:51:47.815Z,97887.00
2022-11-14T10:55:00.253Z,97884.00
2022-11-14T10:57:53.741Z,97886.00
2022-11-14T11:00:47.707Z,97882.00
2022-11-14T11:03:43.844Z,97882.00
2022-11-14T11:06:37.405Z,97876.00
2022-11-14T11:09:49.549Z,97883.00
2022-11-14T11:12:54.371Z,97876.00
2022-11-14T11:15:58.236Z,97865.00
2022-11-14T11:18:51.672Z,97865.00
2022-11-14T11:21:52.180Z,97859.00
2022-11-14T11:24:45.646Z,97855.00
2022-11-14T11:27:39.385Z,97851.00
2022-11-14T11:30:32.858Z,97853.00
2022-11-14T11:33:29.891Z,97845.00
2022-11-14T11:36:25.618Z,97852.00
2022-11-14T11:39:28.430Z,97849.00
2022-11-14T11:43:31.934Z,97849.00
2022-11-14T11:45:55.980Z,97850.00
2022-11-14T11:48:58.014Z,97848.00
2022-11-14T11:51:56.056Z,97846.00
2022-11-14T11:55:16.484Z,97840.00
2022-11-14T11:58:30.209Z,97842.00
2022-11-14T12:01:23.516Z,97844.00
2022-11-14T12:04:17.129Z,97839.00
2022-11-14T12:07:19.937Z,97839.00
2022-11-14T12:10:23.125Z,97831.00
2022-11-14T12:13:54.708Z,97841.00
2022-11-14T12:17:37.361Z,97842.00
2022-11-14T12:21:04.841Z,97845.00
2022-11-14T12:24:55.519Z,97837.00
2022-11-14T12:28:30.722Z,97837.00
2022-11-14T12:31:26.140Z,97844.00
2022-11-14T12:34:29.202Z,97840.00
2022-11-14T12:37:34.801Z,97837.00
2022-11-14T12:40:34.630Z,97836.00
2022-11-14T12:43:39.076Z,97833.00
2022-11-14T12:47:04.793Z,97828.00
2022-11-14T12:50:01.558Z,97826.00
2022-11-14T12:52:55.825Z,97825.00
2022-11-14T12:55:49.139Z,97822.00
2022-11-14T12:58:58.435Z,97824.00
2022-11-14T13:01:52.853Z,97827.00
2022-11-14T13:05:14.805Z,97824.00
2022-11-14T13:08:47.748Z,97829.00
2022-11-14T13:12:04.929Z,97822.00
2022-11-14T13:15:49.158Z,97815.00
2022-11-14T13:19:21.119Z,97819.00
2022-11-14T13:22:14.813Z,97819.00
2022-11-14T13:25:11.368Z,97816.00
2022-11-14T13:28:39.116Z,97821.00
2022-11-14T13:31:42.733Z,97813.00
2022-11-14T13:35:37.352Z,97817.00
2022-11-14T13:39:05.392Z,97807.00
2022-11-14T13:42:38.687Z,97812.00
2022-11-14T13:45:51.757Z,97808.00
2022-11-14T13:49:16.861Z,97810.00
2022-11-14T13:52:13.389Z,97809.00
2022-11-14T13:55:07.496Z,97807.00
2022-11-14T13:58:32.368Z,97813.00
2022-11-14T14:01:31.327Z,97813.00
2022-11-14T14:04:37.291Z,97812.00
2022-11-14T14:08:14.311Z,97810.00
2022-11-14T14:11:29.460Z,97807.00
2022-11-14T14:15:08.005Z,97814.00
2022-11-14T14:18:28.609Z,97809.00
2022-11-14T14:22:09.323Z,97807.00
2022-11-14T14:25:28.798Z,97806.00
2022-11-14T14:29:09.401Z,97817.00
2022-11-14T14:32:21.450Z,97803.00
2022-11-14T14:35:35.582Z,97805.00
2022-11-14T14:38:33.330Z,97806.00
2022-11-14T14:41:32.560Z,97805.00
2022-11-14T14:44:33.745Z,97801.00
2022-11-14T14:47:40.508Z,97802.00
2022-11-14T14:50:52.648Z,97805.00
2022-11-14T14:53:53.910Z,97801.00
2022-11-14T14:56:59.908Z,97804.00
2022-11-14T15:00:08.761Z,97815.00
2022-11-14T15:03:03.730Z,97808.00
2022-11-14T15:06:03.676Z,97814.00
2022-11-14T15:09:00.680Z,97815.00
2022-11-14T15:11:58.992Z,97812.00
2022-11-14T15:14:54.803Z,97828.00
2022-11-14T15:17:50.219Z,97813.00
2022-11-14T15:20:43.927Z,97814.00
2022-11-14T15:23:38.976Z,97811.00
2022-11-14T15:26:34.844Z,97815.00
2022-11-14T15:29:30.031Z,97817.00
2022-11-14T15:32:25.427Z,97818.00
2022-11-14T15:35:23.926Z,97825.00
2022-11-14T15:38:43.228Z,97825.00
2022-11-14T15:41:36.666Z,97824.00
2022-11-14T15:44:34.581Z,97834.00
2022-11-14T15:47:34.817Z,97822.00
2022-11-14T15:50:31.341Z,97834.00
2022-11-14T15:53:28.225Z,97827.00
2022-11-14T15:56:21.895Z,97830.00
2022-11-14T15:59:15.597Z,97833.00
2022-11-14T16:02:21.058Z,97841.00
2022-11-14T16:05:16.906Z,97841.00
2022-11-14T16:08:13.485Z,97843.00
2022-11-14T16:11:06.853Z,97839.00
2022-11-14T16:14:00.358Z,97844.00
2022-11-14T16:16:53.839Z,97836.00
2022-11-14T16:19:47.237Z,97844.00
2022-11-14T16:22:40.909Z,97838.00
2022-11-14T16:25:35.235Z,97847.00
2022-11-14T16:28:28.980Z,97838.00
2022-11-14T16:31:22.722Z,97844.00
2022-11-14T16:34:21.412Z,97849.00
2022-11-14T16:37:15.148Z,97848.00
2022-11-14T16:40:19.447Z,97857.00
2022-11-14T16:43:14.751Z,97858.00
2022-11-14T16:46:09.634Z,97869.00
2022-11-14T16:49:04.287Z,97867.00
2022-11-14T16:51:58.487Z,97866.00
2022-11-14T16:54:51.884Z,97867.00
2022-11-14T16:57:45.495Z,97868.00
2022-11-14T17:00:43.704Z,97876.00
2022-11-14T17:03:37.341Z,97875.00
2022-11-14T17:06:31.053Z,97883.00
2022-11-14T17:09:24.305Z,97888.00
2022-11-14T17:12:17.738Z,97888.00
2022-11-14T17:15:11.318Z,97888.00
2022-11-14T17:18:06.110Z,97891.00
2022-11-14T17:20:59.740Z,97891.00
2022-11-14T17:23:57.964Z,97890.00
2022-11-14T17:26:51.541Z,97877.00
2022-11-14T17:29:46.602Z,97886.00
2022-11-14T17:32:39.892Z,97898.00
2022-11-14T17:35:36.160Z,97895.00
2022-11-14T17:38:33.466Z,97895.00
2022-11-14T17:41:27.013Z,97893.00
2022-11-14T17:44:20.301Z,97890.00
2022-11-14T17:47:13.597Z,97898.00
2022-11-14T17:50:07.574Z,97906.00
2022-11-14T17:53:00.837Z,97899.00
2022-11-14T17:55:57.511Z,97895.00
2022-11-14T17:58:53.415Z,97890.00
2022-11-14T18:01:47.104Z,97889.00
2022-11-14T18:04:40.326Z,97884.00
2022-11-14T18:07:34.008Z,97895.00
2022-11-14T18:10:28.065Z,97889.00
2022-11-14T18:13:21.548Z,97889.00
2022-11-14T18:16:20.082Z,97877.00
2022-11-14T18:19:13.806Z,97890.00
2022-11-14T18:22:07.578Z,97886.00
2022-11-14T18:25:07.696Z,97875.00
2022-11-14T18:28:01.536Z,97878.00
2022-11-14T18:30:56.678Z,97872.00
2022-11-14T18:33:50.424Z,97867.00
2022-11-14T18:36:44.131Z,97853.00
2022-11-14T18:39:37.494Z,97863.00
2022-11-14T18:42:30.840Z,97860.00
2022-11-14T18:45:24.488Z,97862.00
2022-11-14T18:48:18.183Z,97866.00
2022-11-14T18:51:15.613Z,97862.00
2022-11-14T18:54:15.825Z,97866.00
2022-11-14T18:57:09.489Z,97865.00
2022-11-14T19:00:04.356Z,97864.00
2022-11-14T19:03:00.100Z,97872.00
2022-11-14T19:06:03.006Z,97876.00
2022-11-14T19:08:58.587Z,97874.00
2022-11-14T19:12:11.108Z,97875.00
2022-11-14T19:15:05.176Z,97866.00
2022-11-14T19:17:58.633Z,97873.00
2022-11-14T19:21:03.512Z,97877.00
2022-11-14T19:23:57.351Z,97875.00
2022-11-14T19:26:51.010Z,97882.00
2022-11-14T19:29:44.836Z,97884.00
2022-11-14T19:32:38.243Z,97879.00
2022-11-14T19:35:31.554Z,97876.00
2022-11-14T19:38:25.195Z,97878.00
2022-11-14T19:41:21.800Z,97879.00
2022-11-14T19:44:15.199Z,97889.00
2022-11-14T19:47:08.802Z,97887.00
2022-11-14T19:50:02.117Z,97887.00
2022-11-14T19:52:55.926Z,97886.00
2022-11-14T19:55:49.484Z,97894.00
2022-11-14T19:58:45.998Z,97893.00
2022-11-14T20:01:41.923Z,97891.00
2022-11-14T20:04:37.900Z,97902.00
2022-11-14T20:07:33.055Z,97895.00
2022-11-14T20:10:26.461Z,97906.00
2022-11-14T20:13:19.645Z,97908.00
2022-11-14T20:16:14.416Z,97895.00
2022-11-14T20:19:08.231Z,97895.00
2022-11-14T20:22:01.628Z,97884.00
2022-11-14T20:24:54.934Z,97896.00
2022-11-14T20:27:49.124Z,97895.00
2022-11-14T20:30:42.401Z,97908.00
2022-11-14T20:33:42.662Z,97908.00
2022-11-14T20:37:08.828Z,97909.00
2022-11-14T20:39:49.813Z,97903.00
2022-11-14T20:42:47.142Z,97910.00
2022-11-14T20:45:40.617Z,97906.00
2022-11-14T20:48:35.004Z,97895.00
2022-11-14T20:51:28.304Z,97900.00
2022-11-14T20:54:21.642Z,97887.00
2022-11-14T20:57:14.932Z,97884.00
2022-11-14T21:00:09.090Z,97895.00
2022-11-14T21:03:02.753Z,97892.00
2022-11-14T21:05:57.659Z,97896.00
2022-11-14T21:08:50.925Z,97896.00
2022-11-14T21:11:44.158Z,97888.00
2022-11-14T21:14:37.797Z,97889.00
2022-11-14T21:17:31.661Z,97888.00
2022-11-14T21:20:24.786Z,97902.00
2022-11-14T21:23:17.986Z,97897.00
2022-11-14T21:26:16.747Z,97895.00
2022-11-14T21:29:14.458Z,97893.00
2022-11-14T21:32:07.977Z,97883.00
2022-11-14T21:35:04.481Z,97890.00
2022-11-14T21:38:02.159Z,97877.00
2022-11-14T21:40:56.221Z,97887.00
2022-11-14T21:43:55.074Z,97881.00
2022-11-14T21:46:49.672Z,97889.00
2022-11-14T21:49:42.864Z,97891.00
2022-11-14T21:52:36.861Z,97882.00
2022-11-14T21:55:33.788Z,97889.00
2022-11-14T21:58:30.720Z,97884.00
2022-11-14T22:01:42.720Z,97883.00
2022-11-14T22:04:37.160Z,97887.00
2022-11-14T22:07:30.669Z,97885.00
2022-11-14T22:10:24.295Z,97890.00
2022-11-14T22:13:17.853Z,97885.00
2022-11-14T22:16:11.941Z,97887.00
2022-11-14T22:19:06.008Z,97884.00
2022-11-14T22:21:59.575Z,97889.00
2022-11-14T22:24:53.151Z,97884.00
2022-11-14T22:27:46.821Z,97877.00
2022-11-14T22:30:40.630Z,97877.00
2022-11-14T22:33:36.401Z,97878.00
2022-11-14T22:36:30.091Z,97878.00
2022-11-14T22:39:23.270Z,97884.00
2022-11-14T22:42:16.761Z,97874.00
2022-11-14T22:45:10.638Z,97881.00
2022-11-14T22:48:03.956Z,97876.00
2022-11-14T22:51:10.526Z,97877.00
2022-11-14T22:54:04.324Z,97877.00
2022-11-14T22:56:57.661Z,97885.00
2022-11-14T22:59:51.035Z,97874.00
2022-11-14T23:02:44.610Z,97882.00
2022-11-14T23:05:38.634Z,97877.00
2022-11-14T23:08:32.173Z,97875.00
2022-11-14T23:11:29.062Z,97883.00
2022-11-14T23:14:22.504Z,97870.00
2022-11-14T23:17:16.196Z,97879.00
2022-11-14T23:20:16.103Z,97883.00
2022-11-14T23:23:10.089Z,97885.00
2022-11-14T23:26:09.029Z,97879.00
2022-11-14T23:29:02.733Z,97869.00
2022-11-14T23:31:56.420Z,97870.00
2022-11-14T23:34:50.087Z,97869.00
2022-11-14T23:37:43.250Z,97862.00
2022-11-14T23:40:36.712Z,97861.00
2022-11-14T23:43:30.858Z,97849.00
2022-11-14T23:46:24.475Z,97852.00
2022-11-14T23:49:18.165Z,97852.00
2022-11-14T23:52:11.649Z,97844.00
2022-11-14T23:55:05.566Z,97844.00
2022-11-14T23:57:59.033Z,97841.00
